createdAt,value
2018-04-26T00:01:30.625Z,98164.09
2018-04-26T00:03:59.134Z,98159.71
2018-04-26T00:06:27.427Z,98170.28
2018-04-26T00:08:56.042Z,98172.92
2018-04-26T00:11:24.353Z,98170.30
2018-04-26T00:13:52.707Z,98172.94
2018-04-26T00:16:21.045Z,98176.84
2018-04-26T00:18:49.331Z,98180.11
2018-04-26T00:21:18.271Z,98171.45
2018-04-26T00:23:47.057Z,98171.59
2018-04-26T00:26:15.360Z,98169.78
2018-04-26T00:28:43.695Z,98175.58
2018-04-26T00:31:12.019Z,98169.19
2018-04-26T00:33:40.382Z,98168.45
2018-04-26T00:36:08.728Z,98164.23
2018-04-26T00:38:38.067Z,98168.97
2018-04-26T00:41:06.388Z,98167.84
2018-04-26T00:43:35.952Z,98164.30
2018-04-26T00:46:04.235Z,98165.20
2018-04-26T00:48:32.578Z,98162.53
2018-04-26T00:51:00.887Z,98164.09
2018-04-26T00:53:29.237Z,98167.55
2018-04-26T00:55:58.431Z,98173.89
2018-04-26T00:58:26.731Z,98171.92
2018-04-26T01:00:55.040Z,98174.11
2018-04-26T01:03:24.163Z,98180.39
2018-04-26T01:05:52.507Z,98184.41
2018-04-26T01:08:20.799Z,98182.77
2018-04-26T01:10:49.152Z,98187.64
2018-04-26T01:13:17.512Z,98189.89
2018-04-26T01:15:46.065Z,98198.03
2018-04-26T01:18:17.655Z,98198.11
2018-04-26T01:20:45.743Z,98197.81
2018-04-26T01:23:14.124Z,98199.60
2018-04-26T01:25:42.423Z,98196.16
2018-04-26T01:28:11.488Z,98203.19
2018-04-26T01:30:39.826Z,98196.84
2018-04-26T01:33:08.117Z,98201.29
2018-04-26T01:35:36.808Z,98207.27
2018-04-26T01:38:05.119Z,98209.17
2018-04-26T01:40:33.549Z,98214.88
2018-04-26T01:43:02.461Z,98220.77
2018-04-26T01:45:30.752Z,98216.98
2018-04-26T01:47:59.127Z,98219.38
2018-04-26T01:50:27.419Z,98218.13
2018-04-26T01:52:55.713Z,98229.14
2018-04-26T01:55:24.034Z,98224.81
2018-04-26T01:57:52.495Z,98217.81
2018-04-26T02:00:20.800Z,98211.66
2018-04-26T02:02:50.720Z,98229.81
2018-04-26T02:05:19.031Z,98228.81
2018-04-26T02:07:47.399Z,98227.61
2018-04-26T02:10:15.715Z,98230.59
2018-04-26T02:12:44.998Z,98242.55
2018-04-26T02:15:13.521Z,98245.88
2018-04-26T02:17:41.953Z,98235.50
2018-04-26T02:20:10.343Z,98239.12
2018-04-26T02:22:38.684Z,98241.50
2018-04-26T02:25:07.584Z,98242.67
2018-04-26T02:27:35.910Z,98237.19
2018-04-26T02:30:04.203Z,98235.34
2018-04-26T02:32:32.948Z,98223.39
2018-04-26T02:35:01.745Z,98230.89
2018-04-26T02:37:30.830Z,98225.88
2018-04-26T02:39:59.817Z,98236.62
2018-04-26T02:42:28.191Z,98240.52
2018-04-26T02:44:56.910Z,98242.01
2018-04-26T02:47:25.193Z,98239.14
2018-04-26T02:49:53.476Z,98240.67
2018-04-26T02:52:21.852Z,98250.27
2018-04-26T02:54:50.241Z,98246.16
2018-04-26T02:57:18.535Z,98233.05
2018-04-26T02:59:46.868Z,98214.68
2018-04-26T03:02:15.211Z,98237.66
2018-04-26T03:04:43.504Z,98240.59
2018-04-26T03:07:11.827Z,98247.44
2018-04-26T03:09:40.194Z,98252.56
2018-04-26T03:12:08.499Z,98250.51
2018-04-26T03:14:36.832Z,98252.99
2018-04-26T03:17:05.374Z,98256.42
2018-04-26T03:19:33.691Z,98257.56
2018-04-26T03:22:02.026Z,98247.59
2018-04-26T03:24:30.114Z,98255.01
2018-04-26T03:26:58.175Z,98257.13
2018-04-26T03:29:27.059Z,98259.48
2018-04-26T03:31:55.864Z,98262.43
2018-04-26T03:34:24.188Z,98267.56
2018-04-26T03:36:52.529Z,98269.49
2018-04-26T03:39:21.300Z,98270.95
2018-04-26T03:41:49.615Z,98278.98
2018-04-26T03:44:18.683Z,98285.39
2018-04-26T03:46:46.962Z,98283.50
2018-04-26T03:49:15.586Z,98285.16
2018-04-26T03:51:44.050Z,98289.52
2018-04-26T03:54:12.355Z,98282.84
2018-04-26T03:56:40.810Z,98286.39
2018-04-26T03:59:09.094Z,98281.82
2018-04-26T04:01:55.800Z,98286.03
2018-04-26T04:04:41.538Z,98279.94
2018-04-26T04:07:09.879Z,98286.72
2018-04-26T04:09:38.187Z,98292.47
2018-04-26T04:12:07.386Z,98295.17
2018-04-26T04:14:35.728Z,98307.38
2018-04-26T04:17:04.019Z,98313.36
2018-04-26T04:19:33.395Z,98307.48
2018-04-26T04:22:02.147Z,98309.73
2018-04-26T04:24:30.430Z,98304.25
2018-04-26T04:26:58.876Z,98306.56
2018-04-26T04:29:28.028Z,98311.95
2018-04-26T04:31:56.874Z,98312.05
2018-04-26T04:34:25.239Z,98315.73
2018-04-26T04:36:54.570Z,98310.25
2018-04-26T04:39:23.183Z,98307.58
2018-04-26T04:41:53.951Z,98308.75
2018-04-26T04:44:23.984Z,98319.39
2018-04-26T04:46:53.286Z,98321.91
2018-04-26T04:49:21.781Z,98322.52
2018-04-26T04:51:50.232Z,98322.65
2018-04-26T04:54:18.558Z,98322.95
2018-04-26T04:56:46.878Z,98321.87
2018-04-26T04:59:14.955Z,98331.17
2018-04-26T05:01:43.395Z,98331.82
2018-04-26T05:04:12.267Z,98333.39
2018-04-26T05:06:40.766Z,98343.56
2018-04-26T05:09:09.617Z,98336.19
2018-04-26T05:11:37.958Z,98347.84
2018-04-26T05:14:06.311Z,98347.08
2018-04-26T05:16:35.313Z,98344.80
2018-04-26T05:19:04.652Z,98345.06
2018-04-26T05:21:34.998Z,98353.13
2018-04-26T05:24:05.084Z,98355.27
2018-04-26T05:26:33.419Z,98354.67
2018-04-26T05:29:01.767Z,98359.58
2018-04-26T05:31:30.114Z,98361.98
2018-04-26T05:33:58.416Z,98360.27
2018-04-26T05:36:27.340Z,98360.38
2018-04-26T05:38:55.009Z,98356.28
2018-04-26T05:41:24.296Z,98348.48
2018-04-26T05:43:52.748Z,98342.20
2018-04-26T05:46:21.501Z,98342.56
2018-04-26T05:48:49.829Z,98344.16
2018-04-26T05:51:18.343Z,98361.39
2018-04-26T05:53:47.893Z,98356.31
2018-04-26T05:56:16.219Z,98358.11
2018-04-26T05:58:45.015Z,98361.67
2018-04-26T06:01:14.095Z,98360.07
2018-04-26T06:03:42.456Z,98363.59
2018-04-26T06:06:11.512Z,98374.83
2018-04-26T06:08:40.739Z,98376.00
2018-04-26T06:11:08.462Z,98380.16
2018-04-26T06:13:36.820Z,98383.41
2018-04-26T06:16:06.420Z,98382.61
2018-04-26T06:18:35.103Z,98387.25
2018-04-26T06:21:03.591Z,98388.47
2018-04-26T06:23:32.020Z,98394.45
2018-04-26T06:26:00.830Z,98394.37
2018-04-26T06:28:30.227Z,98389.77
2018-04-26T06:30:58.575Z,98386.34
2018-04-26T06:33:26.806Z,98392.03
2018-04-26T06:35:55.150Z,98397.19
2018-04-26T06:38:23.748Z,98393.28
2018-04-26T06:40:52.095Z,98392.36
2018-04-26T06:43:20.942Z,98398.28
2018-04-26T06:45:49.228Z,98400.02
2018-04-26T06:48:17.539Z,98403.71
2018-04-26T06:50:46.641Z,98395.96
2018-04-26T06:53:15.898Z,98400.95
2018-04-26T06:55:44.677Z,98395.75
2018-04-26T06:58:13.616Z,98401.86
2018-04-26T07:00:41.988Z,98406.31
2018-04-26T07:03:10.875Z,98407.73
2018-04-26T07:05:39.400Z,98402.05
2018-04-26T07:08:08.351Z,98396.54
2018-04-26T07:10:37.936Z,98397.89
2018-04-26T07:13:06.769Z,98406.59
2018-04-26T07:15:35.099Z,98414.77
2018-04-26T07:18:03.436Z,98422.71
2018-04-26T07:20:33.119Z,98415.97
2018-04-26T07:23:02.175Z,98422.29
2018-04-26T07:25:30.662Z,98415.11
2018-04-26T07:27:59.485Z,98413.03
2018-04-26T07:30:28.254Z,98411.22
2018-04-26T07:32:56.635Z,98410.63
2018-04-26T07:35:24.956Z,98412.52
2018-04-26T07:37:53.241Z,98416.09
2018-04-26T07:40:21.539Z,98423.19
2018-04-26T07:42:49.899Z,98433.82
2018-04-26T07:45:18.211Z,98439.00
2018-04-26T07:47:46.587Z,98439.11
2018-04-26T07:50:14.928Z,98444.73
2018-04-26T07:52:43.219Z,98442.49
2018-04-26T07:55:11.515Z,98446.19
2018-04-26T07:57:39.864Z,98450.38
2018-04-26T08:00:08.147Z,98452.39
2018-04-26T08:02:37.163Z,98453.19
2018-04-26T08:05:05.575Z,98447.42
2018-04-26T08:07:33.870Z,98458.06
2018-04-26T08:10:02.988Z,98466.64
2018-04-26T08:12:31.279Z,98460.33
2018-04-26T08:15:00.463Z,98461.34
2018-04-26T08:17:28.784Z,98458.22
2018-04-26T08:19:57.260Z,98462.73
2018-04-26T08:22:25.523Z,98469.00
2018-04-26T08:24:54.109Z,98466.06
2018-04-26T08:27:22.367Z,98467.65
2018-04-26T08:29:51.919Z,98473.44
2018-04-26T08:32:20.266Z,98474.50
2018-04-26T08:34:48.542Z,98479.44
2018-04-26T08:37:16.882Z,98482.48
2018-04-26T08:39:45.922Z,98476.59
2018-04-26T08:42:14.199Z,98486.17
2018-04-26T08:44:42.540Z,98490.06
2018-04-26T08:47:11.375Z,98489.78
2018-04-26T08:49:41.227Z,98485.13
2018-04-26T08:52:09.819Z,98490.11
2018-04-26T08:54:38.395Z,98490.35
2018-04-26T08:57:07.380Z,98486.20
2018-04-26T08:59:36.259Z,98490.77
2018-04-26T09:02:04.542Z,98495.27
2018-04-26T09:04:32.830Z,98504.12
2018-04-26T09:07:01.857Z,98494.63
2018-04-26T09:09:30.207Z,98497.89
2018-04-26T09:11:58.496Z,98496.62
2018-04-26T09:14:26.835Z,98498.30
2018-04-26T09:16:55.268Z,98497.39
2018-04-26T09:19:23.552Z,98494.67
2018-04-26T09:21:51.861Z,98491.64
2018-04-26T09:24:24.176Z,98490.15
2018-04-26T09:26:52.503Z,98494.08
2018-04-26T09:29:20.891Z,98493.92
2018-04-26T09:31:49.175Z,98488.36
2018-04-26T09:34:17.703Z,98491.98
2018-04-26T09:36:46.018Z,98493.20
2018-04-26T09:39:14.294Z,98486.68
2018-04-26T09:41:42.702Z,98499.50
2018-04-26T09:44:11.323Z,98495.07
2018-04-26T09:46:39.647Z,98487.59
2018-04-26T09:49:07.927Z,98485.55
2018-04-26T09:51:36.242Z,98482.47
2018-04-26T09:54:05.803Z,98477.77
2018-04-26T09:56:34.091Z,98482.01
2018-04-26T09:59:02.637Z,98489.81
2018-04-26T10:01:36.579Z,98484.42
2018-04-26T10:04:10.437Z,98481.02
2018-04-26T10:06:44.396Z,98477.86
2018-04-26T10:09:12.714Z,98476.77
2018-04-26T10:11:41.005Z,98467.52
2018-04-26T10:14:09.390Z,98465.57
2018-04-26T10:16:38.301Z,98462.34
2018-04-26T10:19:06.632Z,98462.47
2018-04-26T10:21:35.706Z,98466.58
2018-04-26T10:24:04.143Z,98464.06
2018-04-26T10:26:32.518Z,98458.93
2018-04-26T10:29:01.211Z,98449.95
2018-04-26T10:31:29.699Z,98460.86
2018-04-26T10:33:58.035Z,98450.77
2018-04-26T10:36:26.863Z,98449.38
2018-04-26T10:38:55.301Z,98452.55
2018-04-26T10:41:23.580Z,98451.47
2018-04-26T10:43:51.866Z,98443.27
2018-04-26T10:46:20.172Z,98437.41
2018-04-26T10:48:48.463Z,98435.02
2018-04-26T10:51:16.799Z,98445.09
2018-04-26T10:53:45.079Z,98447.11
2018-04-26T10:56:13.366Z,98441.50
2018-04-26T10:58:41.699Z,98431.72
2018-04-26T11:01:10.611Z,98434.38
2018-04-26T11:03:38.906Z,98417.42
2018-04-26T11:06:07.221Z,98419.67
2018-04-26T11:08:35.499Z,98420.95
2018-04-26T11:11:03.788Z,98428.75
2018-04-26T11:13:32.112Z,98422.52
2018-04-26T11:16:00.390Z,98406.86
2018-04-26T11:18:28.694Z,98425.02
2018-04-26T11:20:57.022Z,98415.27
2018-04-26T11:23:25.307Z,98428.17
2018-04-26T11:25:53.628Z,98416.95
2018-04-26T11:28:22.241Z,98414.23
2018-04-26T11:30:51.408Z,98414.53
2018-04-26T11:33:19.704Z,98400.98
2018-04-26T11:35:48.347Z,98399.91
2018-04-26T11:38:16.682Z,98396.76
2018-04-26T11:40:44.963Z,98404.60
2018-04-26T11:43:14.262Z,98393.04
2018-04-26T11:45:42.946Z,98407.12
2018-04-26T11:48:15.924Z,98405.55
2018-04-26T11:50:44.270Z,98401.91
2018-04-26T11:53:12.580Z,98402.19
2018-04-26T11:55:40.868Z,98398.88
2018-04-26T11:58:09.195Z,98408.89
2018-04-26T12:00:37.547Z,98398.50
2018-04-26T12:03:06.607Z,98404.31
2018-04-26T12:05:35.511Z,98396.05
2018-04-26T12:08:03.795Z,98397.19
2018-04-26T12:10:32.847Z,98393.87
2018-04-26T12:13:01.240Z,98401.16
2018-04-26T12:15:29.535Z,98395.56
2018-04-26T12:17:57.827Z,98395.83
2018-04-26T12:20:26.344Z,98385.34
2018-04-26T12:22:54.624Z,98388.62
2018-04-26T12:25:23.531Z,98392.94
2018-04-26T12:27:51.870Z,98401.98
2018-04-26T12:30:20.743Z,98404.34
2018-04-26T12:32:49.026Z,98393.77
2018-04-26T12:35:18.290Z,98400.57
2018-04-26T12:37:46.667Z,98387.67
2018-04-26T12:40:15.556Z,98382.23
2018-04-26T12:42:44.663Z,98383.95
2018-04-26T12:45:13.228Z,98390.94
2018-04-26T12:47:41.508Z,98397.31
2018-04-26T12:50:10.819Z,98397.97
2018-04-26T12:52:39.103Z,98386.80
2018-04-26T12:55:07.451Z,98386.30
2018-04-26T12:57:35.848Z,98385.50
2018-04-26T13:00:04.216Z,98388.45
2018-04-26T13:02:32.911Z,98386.24
2018-04-26T13:05:02.183Z,98389.35
2018-04-26T13:07:30.468Z,98384.66
2018-04-26T13:09:59.117Z,98388.58
2018-04-26T13:12:28.175Z,98394.08
2018-04-26T13:14:57.875Z,98394.87
2018-04-26T13:17:26.223Z,98395.02
2018-04-26T13:19:55.234Z,98385.92
2018-04-26T13:22:23.551Z,98386.58
2018-04-26T13:24:51.975Z,98382.38
2018-04-26T13:27:20.831Z,98387.83
2018-04-26T13:29:49.721Z,98394.70
2018-04-26T13:32:18.122Z,98383.36
2018-04-26T13:34:47.611Z,98374.34
2018-04-26T13:37:16.170Z,98386.98
2018-04-26T13:39:44.733Z,98382.72
2018-04-26T13:42:13.228Z,98373.92
2018-04-26T13:44:42.004Z,98392.66
2018-04-26T13:47:10.315Z,98383.16
2018-04-26T13:49:38.598Z,98368.44
2018-04-26T13:52:07.032Z,98373.89
2018-04-26T13:54:35.340Z,98373.41
2018-04-26T13:57:03.626Z,98377.33
2018-04-26T13:59:32.050Z,98371.09
2018-04-26T14:02:00.335Z,98365.05
2018-04-26T14:04:28.829Z,98366.56
2018-04-26T14:06:57.224Z,98356.37
2018-04-26T14:09:25.542Z,98365.73
2018-04-26T14:11:53.832Z,98367.44
2018-04-26T14:14:22.163Z,98362.47
2018-04-26T14:16:50.443Z,98349.55
2018-04-26T14:19:18.725Z,98354.34
2018-04-26T14:21:47.049Z,98361.12
2018-04-26T14:24:18.805Z,98355.16
2018-04-26T14:26:50.571Z,98359.84
2018-04-26T14:29:18.919Z,98352.25
2018-04-26T14:31:48.027Z,98358.63
2018-04-26T14:34:17.896Z,98360.78
2018-04-26T14:36:46.188Z,98356.31
2018-04-26T14:39:14.518Z,98359.41
2018-04-26T14:41:42.803Z,98364.54
2018-04-26T14:44:11.079Z,98353.51
2018-04-26T14:46:39.395Z,98352.48
2018-04-26T14:49:07.686Z,98357.43
2018-04-26T14:51:36.295Z,98358.09
2018-04-26T14:54:04.622Z,98355.91
2018-04-26T14:56:32.909Z,98357.53
2018-04-26T14:59:01.556Z,98364.50
2018-04-26T15:01:30.603Z,98365.38
2018-04-26T15:03:59.252Z,98365.02
2018-04-26T15:06:28.410Z,98350.80
2018-04-26T15:08:57.467Z,98358.39
2018-04-26T15:11:25.752Z,98354.20
2018-04-26T15:13:54.083Z,98343.84
2018-04-26T15:16:22.373Z,98343.84
2018-04-26T15:18:51.383Z,98354.39
2018-04-26T15:21:19.716Z,98348.16
2018-04-26T15:23:48.727Z,98348.58
2018-04-26T15:26:17.947Z,98344.43
2018-04-26T15:28:46.978Z,98337.58
2018-04-26T15:31:16.071Z,98330.09
2018-04-26T15:33:45.373Z,98334.49
2018-04-26T15:36:14.164Z,98333.85
2018-04-26T15:38:42.543Z,98333.48
2018-04-26T15:41:11.455Z,98328.14
2018-04-26T15:43:39.787Z,98336.12
2018-04-26T15:46:08.067Z,98327.83
2018-04-26T15:48:36.497Z,98319.91
2018-04-26T15:51:04.812Z,98319.09
2018-04-26T15:53:51.840Z,98316.17
2018-04-26T15:56:37.790Z,98321.53
2018-04-26T15:59:24.486Z,98321.73
2018-04-26T16:16:25.819Z,98328.38
2018-04-26T16:32:51.311Z,98334.25
2018-04-26T16:35:37.863Z,98339.05
2018-04-26T16:38:23.643Z,98334.48
2018-04-26T16:40:51.927Z,98335.28
2018-04-26T16:43:20.831Z,98339.84
2018-04-26T16:45:49.848Z,98338.34
2018-04-26T16:48:18.294Z,98340.04
2018-04-26T16:50:46.581Z,98342.62
2018-04-26T16:53:14.864Z,98345.98
2018-04-26T16:55:43.259Z,98338.77
2018-04-26T16:58:11.553Z,98347.09
2018-04-26T17:00:40.431Z,98339.00
2018-04-26T17:03:09.209Z,98335.51
2018-04-26T17:05:37.655Z,98333.48
2018-04-26T17:08:05.947Z,98331.67
2018-04-26T17:10:34.232Z,98338.11
2018-04-26T17:13:02.555Z,98333.02
2018-04-26T17:15:30.842Z,98337.92
2018-04-26T17:17:59.138Z,98337.36
2018-04-26T17:20:29.776Z,98334.58
2018-04-26T17:22:59.035Z,98332.95
2018-04-26T17:25:27.959Z,98331.89
2018-04-26T17:27:57.260Z,98332.16
2018-04-26T17:30:25.535Z,98334.25
2018-04-26T17:32:54.244Z,98334.58
2018-04-26T17:35:23.557Z,98336.59
2018-04-26T17:37:51.840Z,98347.09
2018-04-26T17:40:20.119Z,98344.96
2018-04-26T17:42:48.427Z,98345.09
2018-04-26T17:45:16.711Z,98342.71
2018-04-26T17:47:45.075Z,98348.45
2018-04-26T17:50:13.371Z,98348.92
2018-04-26T17:52:41.717Z,98349.44
2018-04-26T17:55:09.979Z,98351.11
2018-04-26T17:57:38.255Z,98358.13
2018-04-26T18:00:07.115Z,98360.30
2018-04-26T18:02:35.456Z,98364.53
2018-04-26T18:05:03.762Z,98357.75
2018-04-26T18:07:32.091Z,98367.10
2018-04-26T18:10:00.376Z,98367.80
2018-04-26T18:12:28.695Z,98358.05
2018-04-26T18:14:57.213Z,98363.84
2018-04-26T18:17:25.539Z,98369.63
2018-04-26T18:20:01.040Z,98370.02
2018-04-26T18:22:22.315Z,98369.70
2018-04-26T18:24:50.932Z,98367.72
2018-04-26T18:27:19.838Z,98371.66
2018-04-26T18:29:48.340Z,98374.55
2018-04-26T18:32:16.791Z,98373.83
2018-04-26T18:34:45.094Z,98374.79
2018-04-26T18:37:13.669Z,98373.26
2018-04-26T18:39:41.956Z,98376.11
2018-04-26T18:42:10.308Z,98378.19
2018-04-26T18:44:38.643Z,98379.64
2018-04-26T18:47:06.936Z,98387.63
2018-04-26T18:49:35.245Z,98387.52
2018-04-26T18:52:04.230Z,98391.46
2018-04-26T18:54:32.575Z,98400.88
2018-04-26T18:57:00.892Z,98403.03
2018-04-26T18:59:29.224Z,98401.55
2018-04-26T19:01:58.029Z,98411.17
2018-04-26T19:04:26.348Z,98414.16
2018-04-26T19:06:54.659Z,98417.55
2018-04-26T19:09:23.030Z,98424.53
2018-04-26T19:11:51.329Z,98421.48
2018-04-26T19:14:19.619Z,98423.55
2018-04-26T19:16:47.967Z,98428.16
2018-04-26T19:19:16.299Z,98430.41
2018-04-26T19:21:44.635Z,98438.34
2018-04-26T19:24:13.891Z,98439.62
2018-04-26T19:26:42.309Z,98437.87
2018-04-26T19:29:10.607Z,98443.89
2018-04-26T19:31:38.980Z,98453.30
2018-04-26T19:34:07.397Z,98460.77
2018-04-26T19:36:35.690Z,98455.38
2018-04-26T19:39:04.691Z,98459.72
2018-04-26T19:41:33.099Z,98453.07
2018-04-26T19:44:02.147Z,98456.38
2018-04-26T19:46:30.427Z,98456.19
2018-04-26T19:48:59.531Z,98458.86
2018-04-26T19:51:28.638Z,98460.44
2018-04-26T19:53:56.932Z,98456.09
2018-04-26T19:56:25.232Z,98455.28
2018-04-26T19:58:54.986Z,98454.62
2018-04-26T20:01:23.289Z,98457.12
2018-04-26T20:03:52.346Z,98451.72
2018-04-26T20:06:20.708Z,98449.74
2018-04-26T20:08:49.062Z,98448.90
2018-04-26T20:11:17.327Z,98442.16
2018-04-26T20:13:45.667Z,98446.95
2018-04-26T20:16:13.955Z,98440.66
2018-04-26T20:18:42.691Z,98437.89
2018-04-26T20:21:11.013Z,98434.62
2018-04-26T20:23:39.307Z,98436.52
2018-04-26T20:26:07.935Z,98428.62
2018-04-26T20:28:39.312Z,98431.30
2018-04-26T20:31:07.859Z,98431.33
2018-04-26T20:33:36.878Z,98436.33
2018-04-26T20:36:05.986Z,98431.39
2018-04-26T20:38:34.219Z,98433.06
2018-04-26T20:41:02.592Z,98434.78
2018-04-26T20:43:31.518Z,98438.48
2018-04-26T20:45:59.851Z,98436.45
2018-04-26T20:48:41.356Z,98437.59
2018-04-26T20:51:10.324Z,98438.83
2018-04-26T20:53:39.098Z,98437.00
2018-04-26T20:56:07.799Z,98438.22
2018-04-26T20:58:36.089Z,98435.40
2018-04-26T21:01:05.047Z,98432.99
2018-04-26T21:03:33.450Z,98429.00
2018-04-26T21:06:01.767Z,98428.53
2018-04-26T21:08:37.055Z,98431.55
2018-04-26T21:11:05.335Z,98429.16
2018-04-26T21:13:33.894Z,98428.27
2018-04-26T21:16:02.182Z,98430.55
2018-04-26T21:18:30.921Z,98424.66
2018-04-26T21:21:00.027Z,98420.88
2018-04-26T21:23:28.847Z,98427.62
2018-04-26T21:25:57.190Z,98427.23
2018-04-26T21:28:25.967Z,98433.19
2018-04-26T21:30:54.239Z,98431.12
2018-04-26T21:33:23.331Z,98424.22
2018-04-26T21:35:54.654Z,98429.08
2018-04-26T21:38:23.014Z,98429.77
2018-04-26T21:40:51.854Z,98427.88
2018-04-26T21:43:20.164Z,98427.64
2018-04-26T21:45:48.463Z,98425.89
2018-04-26T21:48:16.776Z,98421.55
2018-04-26T21:50:50.412Z,98419.33
2018-04-26T21:53:24.228Z,98427.88
2018-04-26T21:55:57.951Z,98429.16
2018-04-26T21:58:31.863Z,98426.86
2018-04-26T22:01:05.612Z,98429.61
2018-04-26T22:03:39.405Z,98427.05
2018-04-26T22:06:08.363Z,98423.48
2018-04-26T22:08:36.651Z,98427.84
2018-04-26T22:11:04.932Z,98419.39
2018-04-26T22:13:33.243Z,98417.91
2018-04-26T22:16:01.523Z,98409.17
2018-04-26T22:18:29.923Z,98417.31
2018-04-26T22:20:58.251Z,98419.38
2018-04-26T22:23:26.557Z,98415.06
2018-04-26T22:25:55.248Z,98416.25
2018-04-26T22:28:23.571Z,98411.87
2018-04-26T22:30:52.771Z,98409.33
2018-04-26T22:33:21.271Z,98419.45
2018-04-26T22:35:49.551Z,98417.22
2018-04-26T22:38:17.855Z,98413.34
2018-04-26T22:40:46.152Z,98408.34
2018-04-26T22:43:14.432Z,98408.07
2018-04-26T22:45:42.727Z,98412.58
2018-04-26T22:48:11.039Z,98407.45
2018-04-26T22:50:39.318Z,98406.44
2018-04-26T22:53:07.591Z,98409.14
2018-04-26T22:55:35.923Z,98410.90
2018-04-26T22:58:04.210Z,98407.95
2018-04-26T23:00:32.511Z,98398.69
2018-04-26T23:03:00.816Z,98399.56
2018-04-26T23:05:29.859Z,98400.08
2018-04-26T23:07:58.138Z,98392.50
2018-04-26T23:10:26.505Z,98388.84
2018-04-26T23:12:54.791Z,98387.41
2018-04-26T23:15:23.619Z,98388.22
2018-04-26T23:17:52.574Z,98392.66
2018-04-26T23:20:20.899Z,98386.03
2018-04-26T23:22:49.215Z,98386.31
2018-04-26T23:25:17.608Z,98388.25
2018-04-26T23:27:46.566Z,98385.02
2018-04-26T23:30:14.891Z,98383.42
2018-04-26T23:32:43.168Z,98382.20
2018-04-26T23:35:11.438Z,98388.69
2018-04-26T23:37:39.746Z,98380.58
2018-04-26T23:40:08.301Z,98379.41
2018-04-26T23:42:36.595Z,98377.06
2018-04-26T23:45:04.898Z,98386.23
2018-04-26T23:47:33.186Z,98387.35
2018-04-26T23:50:01.916Z,98387.66
2018-04-26T23:52:30.227Z,98377.56
2018-04-26T23:54:58.811Z,98371.63
2018-04-26T23:57:27.091Z,98371.34
2018-04-26T23:59:55.439Z,98366.56
